Time;durP1;ratioP1;P1;durP2;ratioP2;P2;SDS_P1;SDS_P2;PMS_P1;PMS_P2;Temp;Humidity;BMP_temperature;BMP_pressure;BME280_temperature;BME280_humidity;BME280_pressure;Samples;Min_cycle;Max_cycle;Signal;HPM_P1;HPM_P2
2023/01/03 15:03:11;;;;;;;5.38;1.48;;;9.40;79.60;;;;;;5131609;27;20104;-58
2023/01/03 15:05:39;;;;;;;5.22;1.65;;;9.40;79.70;;;;;;5131074;28;20023;-58
2023/01/03 15:08:08;;;;;;;7.20;1.45;;;9.40;79.90;;;;;;5130964;28;20140;-58
2023/01/03 15:11:03;;;;;;;4.70;1.70;;;9.40;79.80;;;;;;5131176;28;20022;-61
2023/01/03 15:13:46;;;;;;;3.78;1.98;;;9.40;79.90;;;;;;5131172;28;20524;-57
2023/01/03 15:16:26;;;;;;;4.40;1.70;;;9.40;79.80;;;;;;5131043;28;20102;-57
2023/01/03 15:19:00;;;;;;;6.22;1.90;;;9.40;80.20;;;;;;5131113;28;20051;-56
2023/01/03 15:21:28;;;;;;;3.92;1.65;;;9.40;79.50;;;;;;5130943;28;20034;-58
2023/01/03 15:23:54;;;;;;;3.53;1.45;;;9.30;77.60;;;;;;5130790;28;20141;-59
2023/01/03 15:26:36;;;;;;;2.97;1.60;;;9.30;77.30;;;;;;5130497;28;20077;-58
2023/01/03 15:29:13;;;;;;;4.47;2.58;;;9.40;77.20;;;;;;5130660;28;20027;-60
2023/01/03 15:31:48;;;;;;;5.13;1.58;;;9.40;77.10;;;;;;5130688;28;20102;-58
2023/01/03 15:34:18;;;;;;;3.63;1.40;;;9.30;77.70;;;;;;5111855;28;20027;-60
2023/01/03 15:36:47;;;;;;;2.38;1.60;;;9.40;78.30;;;;;;5130315;28;20363;-58
2023/01/03 15:39:18;;;;;;;3.95;1.40;;;9.30;78.60;;;;;;5130460;28;20407;-58
2023/01/03 15:44:30;;;;;;;13.35;2.13;;;9.20;78.90;;;;;;5130977;28;20500;-59
2023/01/03 15:47:00;;;;;;;5.30;2.05;;;9.30;78.90;;;;;;5129962;28;20015;-58
2023/01/03 15:49:28;;;;;;;6.47;1.65;;;9.30;78.70;;;;;;5130228;28;20110;-59
2023/01/03 15:51:57;;;;;;;3.65;1.27;;;9.20;79.00;;;;;;5130293;28;20441;-58
2023/01/03 15:54:22;;;;;;;4.65;1.63;;;9.20;79.00;;;;;;5121198;28;20020;-57
2023/01/03 15:57:03;;;;;;;4.57;1.90;;;9.20;79.10;;;;;;5129661;27;20029;-58
2023/01/03 15:59:34;;;;;;;2.65;1.38;;;9.20;79.00;;;;;;5130346;27;20069;-54
2023/01/03 16:02:01;;;;;;;3.50;1.42;;;9.20;79.10;;;;;;5111538;28;20048;-55
2023/01/03 16:04:27;;;;;;;6.70;2.08;;;9.10;79.40;;;;;;5129985;27;20497;-51
2023/01/03 16:06:53;;;;;;;16.10;7.00;;;9.20;79.50;;;;;;5128386;28;20400;-53
2023/01/03 16:09:19;;;;;;;3.05;2.17;;;9.00;79.90;;;;;;5130467;27;20020;-56
2023/01/03 16:11:54;;;;;;;3.30;1.65;;;8.90;80.10;;;;;;5128224;28;20482;-54
2023/01/03 16:14:25;;;;;;;1.73;1.63;;;8.80;80.70;;;;;;5117035;27;20028;-53
2023/01/03 16:16:53;;;;;;;2.28;1.55;;;8.70;80.80;;;;;;5115750;28;20525;-54
2023/01/03 16:19:21;;;;;;;2.25;1.40;;;8.70;80.90;;;;;;5115829;27;20035;-54
2023/01/03 16:21:48;;;;;;;7.88;2.42;;;8.60;80.80;;;;;;5115607;27;20114;-52
2023/01/03 16:24:16;;;;;;;1.80;1.38;;;8.60;81.30;;;;;;5116243;28;20024;-52
2023/01/03 16:26:46;;;;;;;7.55;2.63;;;8.50;81.30;;;;;;5116104;28;20058;-53
2023/01/03 16:29:13;;;;;;;5.05;1.63;;;8.50;81.20;;;;;;5115628;28;20047;-53
2023/01/03 16:31:41;;;;;;;2.80;1.73;;;8.50;81.10;;;;;;5114466;28;20028;-53
2023/01/03 16:34:14;;;;;;;5.50;2.05;;;8.40;81.40;;;;;;5116017;28;20103;-53
2023/01/03 16:36:41;;;;;;;2.65;1.38;;;8.30;81.80;;;;;;5115729;28;20031;-55
2023/01/03 16:39:12;;;;;;;1.90;1.15;;;8.30;81.80;;;;;;5115590;28;20024;-53
2023/01/03 16:41:39;;;;;;;4.80;2.42;;;8.30;81.60;;;;;;5115766;28;20088;-52
2023/01/03 16:44:05;;;;;;;5.65;1.55;;;8.20;82.00;;;;;;5114600;28;20042;-50
2023/01/03 16:46:33;;;;;;;3.83;2.28;;;8.00;82.20;;;;;;5115748;28;20024;-53
2023/01/03 16:48:59;;;;;;;6.03;2.17;;;8.10;82.40;;;;;;5115601;28;20027;-51
2023/01/03 16:51:28;;;;;;;6.18;2.05;;;7.90;82.70;;;;;;5115769;28;20023;-52
2023/01/03 16:53:55;;;;;;;6.78;1.88;;;7.90;82.60;;;;;;5115345;28;20033;-55
2023/01/03 16:56:21;;;;;;;7.88;1.67;;;7.90;83.00;;;;;;5115526;28;20051;-54
2023/01/03 16:58:47;;;;;;;5.63;2.33;;;7.90;82.60;;;;;;5115525;28;20043;-51
2023/01/03 17:01:13;;;;;;;4.60;1.27;;;7.90;82.70;;;;;;5115220;28;20483;-53
2023/01/03 17:03:39;;;;;;;4.13;1.38;;;8.00;82.10;;;;;;5115483;28;20080;-52
2023/01/03 17:06:05;;;;;;;2.85;1.40;;;8.10;81.60;;;;;;5114157;28;20020;-53
2023/01/03 17:08:39;;;;;;;7.25;2.42;;;8.10;81.30;;;;;;5115360;28;20023;-55
2023/01/03 17:11:07;;;;;;;4.15;1.98;;;8.10;81.50;;;;;;5115710;28;20091;-54
2023/01/03 17:13:41;;;;;;;2.67;1.40;;;8.00;81.50;;;;;;5115409;28;20032;-56
2023/01/03 17:16:13;;;;;;;1.20;1.00;;;7.90;82.00;;;;;;5115597;28;20421;-51
2023/01/03 17:18:41;;;;;;;2.47;1.60;;;8.00;81.60;;;;;;5114352;28;20462;-51
2023/01/03 17:21:26;;;;;;;7.03;1.65;;;8.00;81.50;;;;;;5114954;28;20032;-52
2023/01/03 17:23:57;;;;;;;3.75;1.45;;;7.90;81.80;;;;;;5115573;28;20020;-50
2023/01/03 17:26:24;;;;;;;5.68;2.60;;;7.90;81.70;;;;;;5114588;28;20019;-54
2023/01/03 17:28:51;;;;;;;3.60;1.55;;;7.90;81.70;;;;;;5114937;27;20462;-57
2023/01/03 17:31:22;;;;;;;10.75;3.17;;;7.80;81.80;;;;;;5115304;28;20056;-53
2023/01/03 17:33:48;;;;;;;5.18;3.08;;;7.80;81.80;;;;;;5115683;28;20083;-53
2023/01/03 17:36:18;;;;;;;4.22;1.63;;;7.90;81.60;;;;;;5115918;28;20059;-54
2023/01/03 17:38:44;;;;;;;6.45;2.25;;;8.00;81.40;;;;;;5115649;28;20493;-53
2023/01/03 17:41:19;;;;;;;7.30;2.30;;;8.00;81.20;;;;;;5113623;28;20024;-54
2023/01/03 17:43:46;;;;;;;7.88;3.17;;;7.80;81.40;;;;;;5113625;28;20524;-54
2023/01/03 17:49:25;;;;;;;4.20;2.00;;;8.00;80.90;;;;;;5115629;28;20031;-54
2023/01/03 17:52:08;;;;;;;4.53;1.67;;;7.80;81.20;;;;;;5116232;28;20027;-53
2023/01/03 17:54:37;;;;;;;2.00;1.48;;;7.90;81.00;;;;;;5115047;28;20032;-50
2023/01/03 17:57:03;;;;;;;5.32;2.22;;;7.90;81.00;;;;;;5114877;28;20028;-54
2023/01/03 17:59:30;;;;;;;3.85;1.73;;;7.90;80.90;;;;;;5115312;28;20031;-51
2023/01/03 18:01:55;;;;;;;2.53;1.40;;;7.90;81.00;;;;;;5114820;28;20067;-51
2023/01/03 18:04:26;;;;;;;5.32;2.58;;;8.00;80.40;;;;;;5113415;28;20015;-50
2023/01/03 18:06:56;;;;;;;6.55;1.65;;;8.10;80.10;;;;;;5113482;28;20048;-54
2023/01/03 18:09:23;;;;;;;7.13;1.10;;;8.10;80.20;;;;;;5114562;28;20016;-52
2023/01/03 18:11:48;;;;;;;3.60;1.40;;;8.00;80.00;;;;;;5115055;28;20375;-51
2023/01/03 18:14:15;;;;;;;4.20;1.52;;;8.10;79.80;;;;;;5114614;28;20024;-54
2023/01/03 18:16:41;;;;;;;5.15;2.03;;;8.10;79.70;;;;;;5114876;28;20030;-51
2023/01/03 18:19:14;;;;;;;5.25;2.35;;;8.10;79.50;;;;;;5113296;28;20049;-55
2023/01/03 18:21:40;;;;;;;4.35;1.42;;;8.10;79.70;;;;;;5112993;28;20051;-52
2023/01/03 18:24:11;;;;;;;13.25;2.67;;;8.10;79.50;;;;;;5112927;28;20138;-51
2023/01/03 18:26:46;;;;;;;11.18;2.53;;;8.20;79.30;;;;;;5112977;28;20031;-53
2023/01/03 18:29:14;;;;;;;5.93;1.60;;;8.10;79.50;;;;;;5114309;28;20031;-52
2023/01/03 18:31:41;;;;;;;5.65;1.50;;;8.10;79.50;;;;;;5114038;28;20074;-52
2023/01/03 18:34:07;;;;;;;3.08;1.38;;;8.10;79.30;;;;;;5113907;28;20051;-52
2023/01/03 18:36:49;;;;;;;5.68;1.88;;;8.10;79.20;;;;;;5113578;28;20096;-55
2023/01/03 18:39:21;;;;;;;3.90;1.33;;;8.10;79.40;;;;;;5113799;28;20023;-52
2023/01/03 18:41:47;;;;;;;6.00;1.90;;;8.00;79.60;;;;;;5113818;28;20024;-51
2023/01/03 18:44:21;;;;;;;5.78;1.80;;;8.00;79.40;;;;;;5112576;28;20071;-57
2023/01/03 18:46:48;;;;;;;3.22;1.70;;;8.20;79.00;;;;;;5113627;28;20371;-57
2023/01/03 18:49:14;;;;;;;2.35;1.40;;;8.10;79.10;;;;;;5113520;28;20038;-51
2023/01/03 18:51:39;;;;;;;6.60;1.73;;;8.00;79.40;;;;;;5113635;28;20093;-54
2023/01/03 18:54:05;;;;;;;6.68;1.83;;;8.10;79.00;;;;;;5113560;28;20020;-52
2023/01/03 18:56:35;;;;;;;7.80;1.45;;;8.10;79.00;;;;;;5113849;28;20028;-55
2023/01/03 18:59:17;;;;;;;10.88;2.15;;;8.10;78.90;;;;;;5112445;28;20028;-50
2023/01/03 19:01:43;;;;;;;4.90;1.33;;;8.20;78.40;;;;;;5113410;28;20432;-49
2023/01/03 19:04:08;;;;;;;3.13;1.73;;;8.10;78.60;;;;;;5113493;28;20020;-49
2023/01/03 19:06:39;;;;;;;8.57;2.03;;;8.20;78.30;;;;;;5113466;28;20102;-55
2023/01/03 19:09:05;;;;;;;;;;;8.30;77.90;;;;;;5114096;28;20019;-49
2023/01/03 19:11:34;;;;;;;3.97;1.08;;;8.20;78.30;;;;;;5113429;28;19994;-60
2023/01/03 19:14:02;;;;;;;4.38;1.77;;;8.20;78.20;;;;;;5113237;28;20024;-59
2023/01/03 19:16:31;;;;;;;6.68;1.60;;;8.20;78.50;;;;;;5113444;28;20055;-58
2023/01/03 19:18:58;;;;;;;3.67;1.73;;;8.30;78.10;;;;;;5113594;28;20019;-59
2023/01/03 19:21:29;;;;;;;8.48;1.65;;;8.20;78.30;;;;;;5111979;28;20069;-54
2023/01/03 19:24:05;;;;;;;4.65;1.75;;;8.20;78.20;;;;;;5113743;28;20030;-53
2023/01/03 19:26:35;;;;;;;3.45;2.00;;;8.20;78.50;;;;;;5113710;28;20049;-53
2023/01/03 19:29:04;;;;;;;7.05;3.95;;;8.10;78.60;;;;;;5113004;28;20019;-51
2023/01/03 19:31:42;;;;;;;5.43;1.80;;;8.10;78.60;;;;;;5111633;28;20490;-54
2023/01/03 19:34:20;;;;;;;8.50;1.83;;;8.10;78.80;;;;;;5113267;28;20061;-53
2023/01/03 19:36:49;;;;;;;6.40;2.53;;;8.00;79.00;;;;;;5113186;28;20072;-52
2023/01/03 19:39:15;;;;;;;3.58;1.55;;;8.10;78.70;;;;;;5113090;28;20042;-51
2023/01/03 19:44:34;;;;;;;8.52;1.77;;;8.00;78.80;;;;;;5113384;28;20039;-52
2023/01/03 19:47:00;;;;;;;4.47;1.90;;;8.10;78.60;;;;;;5113156;28;20386;-53
2023/01/03 19:49:27;;;;;;;6.50;1.35;;;8.10;78.60;;;;;;5116540;28;20024;-50
2023/01/03 19:51:52;;;;;;;4.20;3.05;;;8.10;78.40;;;;;;5117340;28;20027;-51
2023/01/03 19:54:18;;;;;;;10.88;3.22;;;8.10;78.30;;;;;;5117168;28;20028;-51
2023/01/03 19:56:44;;;;;;;3.80;1.83;;;8.10;78.30;;;;;;5117161;28;20532;-54
2023/01/03 19:59:28;;;;;;;8.18;1.80;;;8.10;78.50;;;;;;5117100;28;20020;-56
2023/01/03 20:01:55;;;;;;;6.28;1.85;;;8.10;78.40;;;;;;5117092;28;20121;-58
2023/01/03 20:04:21;;;;;;;2.65;1.50;;;8.10;78.40;;;;;;5116828;28;20039;-57
2023/01/03 20:06:46;;;;;;;10.27;1.88;;;8.10;78.30;;;;;;5116938;28;20019;-59
2023/01/03 20:09:12;;;;;;;4.70;1.83;;;8.00;78.40;;;;;;5116908;28;20360;-56
2023/01/03 20:11:39;;;;;;;8.98;2.17;;;8.10;78.50;;;;;;5117173;28;20028;-60
2023/01/03 20:14:16;;;;;;;7.93;2.42;;;8.00;78.60;;;;;;5116612;28;20386;-55
2023/01/03 20:16:42;;;;;;;5.65;1.30;;;7.90;79.00;;;;;;5116762;28;20034;-59
2023/01/03 20:19:16;;;;;;;7.25;3.33;;;7.90;78.90;;;;;;5116684;28;20537;-57
2023/01/03 20:21:42;;;;;;;5.10;1.45;;;7.90;78.80;;;;;;5117290;28;20024;-60
2023/01/03 20:24:21;;;;;;;3.53;1.77;;;7.90;78.60;;;;;;5115558;28;20028;-57
2023/01/03 20:26:48;;;;;;;12.30;2.20;;;8.00;78.50;;;;;;5116467;28;20012;-57
2023/01/03 20:29:13;;;;;;;2.88;1.38;;;7.80;78.70;;;;;;5116216;28;20102;-57
2023/01/03 20:31:39;;;;;;;6.45;1.50;;;7.80;79.10;;;;;;5116454;28;20102;-53
2023/01/03 20:34:05;;;;;;;5.60;1.88;;;7.80;79.00;;;;;;5116591;28;20031;-55
2023/01/03 20:36:35;;;;;;;2.22;1.30;;;7.70;79.30;;;;;;5116406;28;20055;-59
2023/01/03 20:39:00;;;;;;;5.00;1.50;;;7.80;79.50;;;;;;5116251;28;20054;-59
2023/01/03 20:41:34;;;;;;;3.22;1.70;;;7.80;79.10;;;;;;5116416;28;20277;-57
2023/01/03 20:44:01;;;;;;;6.55;2.00;;;7.70;79.50;;;;;;5116419;28;20076;-57
2023/01/03 20:46:31;;;;;;;6.28;2.08;;;7.70;79.50;;;;;;5116189;28;20026;-59
2023/01/03 20:49:00;;;;;;;9.90;1.60;;;7.70;79.70;;;;;;5116284;28;20038;-56
2023/01/03 20:51:25;;;;;;;8.68;1.88;;;7.60;79.70;;;;;;5116110;28;20024;-55
2023/01/03 20:53:51;;;;;;;8.93;2.55;;;7.70;79.50;;;;;;5116329;28;20119;-59
2023/01/03 20:56:20;;;;;;;9.57;2.00;;;7.70;79.50;;;;;;5116249;28;20106;-55
2023/01/03 20:58:45;;;;;;;5.70;2.03;;;7.70;79.60;;;;;;5114800;28;20035;-57
